sensor_id;sensor_type;location;lat;lon;timestamp;pressure;altitude;pressure_sealevel;temperature;humidity
70544;BME280;58097;48.364;-1.224;2022-11-20T00:00:57;99522.63;;;6.75;76.80
70544;BME280;58097;48.364;-1.224;2022-11-20T00:03:28;99518.44;;;6.71;76.99
70544;BME280;58097;48.364;-1.224;2022-11-20T00:05:59;99512.94;;;6.71;77.08
70544;BME280;58097;48.364;-1.224;2022-11-20T00:08:25;99518.44;;;6.71;77.16
70544;BME280;58097;48.364;-1.224;2022-11-20T00:10:50;99524.06;;;6.70;77.14
70544;BME280;58097;48.364;-1.224;2022-11-20T00:13:15;99512.38;;;6.68;76.84
70544;BME280;58097;48.364;-1.224;2022-11-20T00:15:40;99523.50;;;6.66;76.72
70544;BME280;58097;48.364;-1.224;2022-11-20T00:18:06;99514.66;;;6.63;76.90
70544;BME280;58097;48.364;-1.224;2022-11-20T00:20:31;99517.41;;;6.63;76.66
70544;BME280;58097;48.364;-1.224;2022-11-20T00:22:56;99508.31;;;6.62;76.83
70544;BME280;58097;48.364;-1.224;2022-11-20T00:25:22;99506.44;;;6.63;77.01
70544;BME280;58097;48.364;-1.224;2022-11-20T00:27:47;99500.78;;;6.64;76.97
70544;BME280;58097;48.364;-1.224;2022-11-20T00:30:12;99502.66;;;6.64;77.39
70544;BME280;58097;48.364;-1.224;2022-11-20T00:32:38;99499.06;;;6.63;77.17
70544;BME280;58097;48.364;-1.224;2022-11-20T00:35:03;99501.53;;;6.66;77.02
70544;BME280;58097;48.364;-1.224;2022-11-20T00:37:29;99499.66;;;6.67;77.22
70544;BME280;58097;48.364;-1.224;2022-11-20T00:39:54;99500.38;;;6.69;77.19
70544;BME280;58097;48.364;-1.224;2022-11-20T00:42:19;99493.88;;;6.70;77.34
70544;BME280;58097;48.364;-1.224;2022-11-20T00:44:45;99495.59;;;6.71;77.21
70544;BME280;58097;48.364;-1.224;2022-11-20T00:47:10;99496.47;;;6.71;77.29
70544;BME280;58097;48.364;-1.224;2022-11-20T00:49:35;99494.28;;;6.75;77.46
70544;BME280;58097;48.364;-1.224;2022-11-20T00:52:01;99484.88;;;6.77;77.44
70544;BME280;58097;48.364;-1.224;2022-11-20T00:54:26;99491.25;;;6.78;77.95
70544;BME280;58097;48.364;-1.224;2022-11-20T00:56:54;99484.28;;;6.83;77.77
70544;BME280;58097;48.364;-1.224;2022-11-20T00:59:20;99483.84;;;6.88;77.68
70544;BME280;58097;48.364;-1.224;2022-11-20T01:01:45;99484.41;;;6.92;77.31
70544;BME280;58097;48.364;-1.224;2022-11-20T01:04:10;99477.47;;;6.97;77.73
70544;BME280;58097;48.364;-1.224;2022-11-20T01:06:37;99480.50;;;7.04;77.50
70544;BME280;58097;48.364;-1.224;2022-11-20T01:09:10;99477.44;;;7.07;77.92
70544;BME280;58097;48.364;-1.224;2022-11-20T01:11:37;99471.78;;;7.08;77.87
70544;BME280;58097;48.364;-1.224;2022-11-20T01:14:06;99470.06;;;7.07;77.86
70544;BME280;58097;48.364;-1.224;2022-11-20T01:16:34;99463.13;;;7.03;77.76
70544;BME280;58097;48.364;-1.224;2022-11-20T01:19:02;99470.66;;;7.01;77.78
70544;BME280;58097;48.364;-1.224;2022-11-20T01:21:31;99457.22;;;6.98;77.77
70544;BME280;58097;48.364;-1.224;2022-11-20T01:23:57;99464.44;;;6.99;77.46
70544;BME280;58097;48.364;-1.224;2022-11-20T01:26:25;99460.69;;;7.00;77.84
70544;BME280;58097;48.364;-1.224;2022-11-20T01:28:51;99453.88;;;7.04;77.97
70544;BME280;58097;48.364;-1.224;2022-11-20T01:31:20;99446.34;;;7.06;77.97
70544;BME280;58097;48.364;-1.224;2022-11-20T01:33:47;99439.38;;;7.12;78.04
70544;BME280;58097;48.364;-1.224;2022-11-20T01:36:14;99442.53;;;7.17;78.16
70544;BME280;58097;48.364;-1.224;2022-11-20T01:38:40;99436.72;;;7.20;78.13
70544;BME280;58097;48.364;-1.224;2022-11-20T01:41:06;99430.22;;;7.21;78.12
70544;BME280;58097;48.364;-1.224;2022-11-20T01:43:32;99433.56;;;7.25;78.26
70544;BME280;58097;48.364;-1.224;2022-11-20T01:45:59;99429.78;;;7.26;77.94
70544;BME280;58097;48.364;-1.224;2022-11-20T01:48:30;99426.03;;;7.27;78.04
70544;BME280;58097;48.364;-1.224;2022-11-20T01:50:57;99417.94;;;7.25;77.75
70544;BME280;58097;48.364;-1.224;2022-11-20T01:53:27;99417.78;;;7.27;77.80
70544;BME280;58097;48.364;-1.224;2022-11-20T01:55:55;99419.81;;;7.25;78.08
70544;BME280;58097;48.364;-1.224;2022-11-20T01:58:25;99417.94;;;7.25;77.82
70544;BME280;58097;48.364;-1.224;2022-11-20T02:00:53;99411.25;;;7.28;78.16
70544;BME280;58097;48.364;-1.224;2022-11-20T02:03:19;99413.69;;;7.31;78.86
70544;BME280;58097;48.364;-1.224;2022-11-20T02:05:51;99415.44;;;7.32;78.50
70544;BME280;58097;48.364;-1.224;2022-11-20T02:08:20;99417.63;;;7.28;79.76
70544;BME280;58097;48.364;-1.224;2022-11-20T02:10:46;99414.88;;;7.28;79.56
70544;BME280;58097;48.364;-1.224;2022-11-20T02:13:11;99406.47;;;7.30;79.71
70544;BME280;58097;48.364;-1.224;2022-11-20T02:15:55;99407.81;;;7.26;79.63
70544;BME280;58097;48.364;-1.224;2022-11-20T02:18:21;99413.56;;;7.23;79.38
70544;BME280;58097;48.364;-1.224;2022-11-20T02:20:50;99403.75;;;7.20;79.29
70544;BME280;58097;48.364;-1.224;2022-11-20T02:23:28;99394.97;;;7.17;79.72
70544;BME280;58097;48.364;-1.224;2022-11-20T02:25:57;99393.38;;;7.14;79.94
70544;BME280;58097;48.364;-1.224;2022-11-20T02:28:23;99393.38;;;7.14;80.00
70544;BME280;58097;48.364;-1.224;2022-11-20T02:30:48;99390.63;;;7.14;80.72
70544;BME280;58097;48.364;-1.224;2022-11-20T02:33:14;99384.97;;;7.15;80.66
70544;BME280;58097;48.364;-1.224;2022-11-20T02:35:42;99374.38;;;7.21;80.66
70544;BME280;58097;48.364;-1.224;2022-11-20T02:38:08;99377.13;;;7.21;80.87
70544;BME280;58097;48.364;-1.224;2022-11-20T02:40:33;99371.38;;;7.24;80.82
70544;BME280;58097;48.364;-1.224;2022-11-20T02:42:59;99365.56;;;7.27;80.95
70544;BME280;58097;48.364;-1.224;2022-11-20T02:45:24;99366.28;;;7.29;80.56
70544;BME280;58097;48.364;-1.224;2022-11-20T02:47:50;99366.13;;;7.30;80.25
70544;BME280;58097;48.364;-1.224;2022-11-20T02:50:16;99359.75;;;7.30;79.92
70544;BME280;58097;48.364;-1.224;2022-11-20T02:52:42;99354.41;;;7.28;80.06
70544;BME280;58097;48.364;-1.224;2022-11-20T02:55:07;99353.53;;;7.28;80.27
70544;BME280;58097;48.364;-1.224;2022-11-20T02:57:33;99349.22;;;7.25;80.76
70544;BME280;58097;48.364;-1.224;2022-11-20T02:59:58;99351.97;;;7.25;81.68
70544;BME280;58097;48.364;-1.224;2022-11-20T03:02:24;99346.16;;;7.28;81.29
70544;BME280;58097;48.364;-1.224;2022-11-20T03:04:49;99340.19;;;7.33;81.04
70544;BME280;58097;48.364;-1.224;2022-11-20T03:07:14;99334.38;;;7.36;81.37
70544;BME280;58097;48.364;-1.224;2022-11-20T03:09:40;99333.22;;;7.38;81.96
70544;BME280;58097;48.364;-1.224;2022-11-20T03:12:05;99322.94;;;7.40;81.35
70544;BME280;58097;48.364;-1.224;2022-11-20T03:14:31;99322.59;;;7.43;81.16
70544;BME280;58097;48.364;-1.224;2022-11-20T03:16:56;99327.09;;;7.44;81.30
70544;BME280;58097;48.364;-1.224;2022-11-20T03:19:22;99318.53;;;7.47;81.21
70544;BME280;58097;48.364;-1.224;2022-11-20T03:21:47;99310.75;;;7.43;81.87
70544;BME280;58097;48.364;-1.224;2022-11-20T03:24:13;99313.34;;;7.44;81.56
70544;BME280;58097;48.364;-1.224;2022-11-20T03:26:39;99302.34;;;7.44;82.16
70544;BME280;58097;48.364;-1.224;2022-11-20T03:29:04;99295.28;;;7.42;82.57
70544;BME280;58097;48.364;-1.224;2022-11-20T03:31:35;99290.81;;;7.41;82.46
70544;BME280;58097;48.364;-1.224;2022-11-20T03:34:02;99289.78;;;7.42;82.48
70544;BME280;58097;48.364;-1.224;2022-11-20T03:36:28;99276.75;;;7.44;82.77
70544;BME280;58097;48.364;-1.224;2022-11-20T03:38:54;99265.19;;;7.40;82.68
70544;BME280;58097;48.364;-1.224;2022-11-20T03:41:28;99258.84;;;7.40;83.32
70544;BME280;58097;48.364;-1.224;2022-11-20T03:43:55;99248.88;;;7.39;83.41
70544;BME280;58097;48.364;-1.224;2022-11-20T03:46:21;99244.38;;;7.38;83.67
70544;BME280;58097;48.364;-1.224;2022-11-20T03:48:47;99236.84;;;7.40;82.98
70544;BME280;58097;48.364;-1.224;2022-11-20T03:53:41;99234.47;;;7.45;83.29
70544;BME280;58097;48.364;-1.224;2022-11-20T03:56:08;99229.84;;;7.45;82.92
70544;BME280;58097;48.364;-1.224;2022-11-20T03:58:35;99228.66;;;7.48;83.32
70544;BME280;58097;48.364;-1.224;2022-11-20T04:01:12;99229.22;;;7.52;83.36
70544;BME280;58097;48.364;-1.224;2022-11-20T04:03:39;99233.56;;;7.54;83.28
70544;BME280;58097;48.364;-1.224;2022-11-20T04:06:06;99227.72;;;7.57;83.52
70544;BME280;58097;48.364;-1.224;2022-11-20T04:08:32;99225.84;;;7.58;83.74
70544;BME280;58097;48.364;-1.224;2022-11-20T04:11:11;99220.03;;;7.61;83.13
70544;BME280;58097;48.364;-1.224;2022-11-20T04:13:37;99213.34;;;7.63;83.41
70544;BME280;58097;48.364;-1.224;2022-11-20T04:16:03;99212.16;;;7.66;83.15
70544;BME280;58097;48.364;-1.224;2022-11-20T04:18:28;99212.00;;;7.67;83.24
70544;BME280;58097;48.364;-1.224;2022-11-20T04:20:56;99213.72;;;7.68;83.73
70544;BME280;58097;48.364;-1.224;2022-11-20T04:23:22;99209.25;;;7.67;83.45
70544;BME280;58097;48.364;-1.224;2022-11-20T04:25:47;99212.00;;;7.67;84.72
70544;BME280;58097;48.364;-1.224;2022-11-20T04:28:12;99210.81;;;7.70;84.39
70544;BME280;58097;48.364;-1.224;2022-11-20T04:30:38;99210.81;;;7.70;84.69
70544;BME280;58097;48.364;-1.224;2022-11-20T04:33:03;99198.63;;;7.72;84.23
70544;BME280;58097;48.364;-1.224;2022-11-20T04:35:28;99210.88;;;7.78;84.52
70544;BME280;58097;48.364;-1.224;2022-11-20T04:37:54;99203.63;;;7.77;84.46
70544;BME280;58097;48.364;-1.224;2022-11-20T04:40:19;99206.22;;;7.78;84.53
70544;BME280;58097;48.364;-1.224;2022-11-20T04:42:44;99197.97;;;7.78;84.26
70544;BME280;58097;48.364;-1.224;2022-11-20T04:45:10;99203.63;;;7.77;84.97
70544;BME280;58097;48.364;-1.224;2022-11-20T04:47:35;99196.25;;;7.77;85.17
70544;BME280;58097;48.364;-1.224;2022-11-20T04:50:00;99198.13;;;7.77;85.58
70544;BME280;58097;48.364;-1.224;2022-11-20T04:52:26;99192.63;;;7.77;86.54
70544;BME280;58097;48.364;-1.224;2022-11-20T04:54:51;99195.53;;;7.75;86.07
70544;BME280;58097;48.364;-1.224;2022-11-20T04:57:18;99186.09;;;7.78;86.61
70544;BME280;58097;48.364;-1.224;2022-11-20T04:59:43;99190.59;;;7.79;86.27
70544;BME280;58097;48.364;-1.224;2022-11-20T05:02:09;99179.59;;;7.79;86.26
70544;BME280;58097;48.364;-1.224;2022-11-20T05:04:34;99179.59;;;7.79;85.70
70544;BME280;58097;48.364;-1.224;2022-11-20T05:07:00;99176.28;;;7.75;86.11
70544;BME280;58097;48.364;-1.224;2022-11-20T05:09:25;99168.91;;;7.76;85.92
70544;BME280;58097;48.364;-1.224;2022-11-20T05:11:50;99166.31;;;7.74;85.47
70544;BME280;58097;48.364;-1.224;2022-11-20T05:14:16;99158.06;;;7.74;85.91
70544;BME280;58097;48.364;-1.224;2022-11-20T05:16:41;99153.44;;;7.75;86.80
70544;BME280;58097;48.364;-1.224;2022-11-20T05:19:06;99156.03;;;7.76;86.59
70544;BME280;58097;48.364;-1.224;2022-11-20T05:21:32;99155.56;;;7.81;86.64
70544;BME280;58097;48.364;-1.224;2022-11-20T05:23:57;99149.41;;;7.87;85.98
70544;BME280;58097;48.364;-1.224;2022-11-20T05:26:23;99152.00;;;7.89;86.45
70544;BME280;58097;48.364;-1.224;2022-11-20T05:28:49;99151.66;;;7.92;86.29
70544;BME280;58097;48.364;-1.224;2022-11-20T05:31:18;99148.22;;;7.90;87.04
70544;BME280;58097;48.364;-1.224;2022-11-20T05:33:44;99137.22;;;7.90;86.70
70544;BME280;58097;48.364;-1.224;2022-11-20T05:36:12;99133.44;;;7.91;86.57
70544;BME280;58097;48.364;-1.224;2022-11-20T05:38:38;99126.53;;;7.87;86.55
70544;BME280;58097;48.364;-1.224;2022-11-20T05:43:34;99135.81;;;7.86;87.44
70544;BME280;58097;48.364;-1.224;2022-11-20T05:46:00;99129.78;;;7.82;87.42
70544;BME280;58097;48.364;-1.224;2022-11-20T05:48:25;99137.00;;;7.83;87.36
70544;BME280;58097;48.364;-1.224;2022-11-20T05:50:50;99139.06;;;7.81;88.15
70544;BME280;58097;48.364;-1.224;2022-11-20T05:53:16;99147.69;;;7.86;87.54
70544;BME280;58097;48.364;-1.224;2022-11-20T05:55:41;99145.63;;;7.88;87.32
70544;BME280;58097;48.364;-1.224;2022-11-20T05:58:06;99145.09;;;7.85;87.73
70544;BME280;58097;48.364;-1.224;2022-11-20T06:00:32;99156.78;;;7.87;87.86
70544;BME280;58097;48.364;-1.224;2022-11-20T06:02:57;99145.97;;;7.85;87.99
70544;BME280;58097;48.364;-1.224;2022-11-20T06:05:23;99157.66;;;7.87;87.90
70544;BME280;58097;48.364;-1.224;2022-11-20T06:07:48;99170.91;;;7.92;87.51
70544;BME280;58097;48.364;-1.224;2022-11-20T06:10:13;99168.34;;;7.90;87.99
70544;BME280;58097;48.364;-1.224;2022-11-20T06:12:38;99180.91;;;7.93;87.45
70544;BME280;58097;48.364;-1.224;2022-11-20T06:15:05;99177.13;;;7.94;87.52
70544;BME280;58097;48.364;-1.224;2022-11-20T06:17:31;99228.38;;;7.95;88.23
70544;BME280;58097;48.364;-1.224;2022-11-20T06:19:56;99275.84;;;7.97;89.24
70544;BME280;58097;48.364;-1.224;2022-11-20T06:22:21;99231.66;;;7.98;88.62
70544;BME280;58097;48.364;-1.224;2022-11-20T06:24:47;99260.06;;;8.07;87.89
70544;BME280;58097;48.364;-1.224;2022-11-20T06:27:12;99248.78;;;8.10;87.92
70544;BME280;58097;48.364;-1.224;2022-11-20T06:29:37;99231.25;;;8.11;88.76
70544;BME280;58097;48.364;-1.224;2022-11-20T06:32:03;99233.34;;;8.17;87.33
70544;BME280;58097;48.364;-1.224;2022-11-20T06:34:28;99237.31;;;8.23;87.68
70544;BME280;58097;48.364;-1.224;2022-11-20T06:36:54;99244.72;;;8.22;87.36
70544;BME280;58097;48.364;-1.224;2022-11-20T06:39:19;99251.78;;;8.25;86.95
70544;BME280;58097;48.364;-1.224;2022-11-20T06:41:44;99247.13;;;8.25;86.91
70544;BME280;58097;48.364;-1.224;2022-11-20T06:44:10;99227.72;;;8.27;86.92
70544;BME280;58097;48.364;-1.224;2022-11-20T06:46:35;99236.81;;;8.27;88.11
70544;BME280;58097;48.364;-1.224;2022-11-20T06:49:00;99237.69;;;8.28;88.45
70544;BME280;58097;48.364;-1.224;2022-11-20T06:51:26;99225.31;;;8.32;88.61
70544;BME280;58097;48.364;-1.224;2022-11-20T06:53:51;99218.94;;;8.31;88.77
70544;BME280;58097;48.364;-1.224;2022-11-20T06:56:17;99213.44;;;8.31;89.19
70544;BME280;58097;48.364;-1.224;2022-11-20T06:58:42;99204.31;;;8.31;89.31
70544;BME280;58097;48.364;-1.224;2022-11-20T07:01:12;99197.50;;;8.35;88.46
70544;BME280;58097;48.364;-1.224;2022-11-20T07:03:39;99203.00;;;8.35;88.25
70544;BME280;58097;48.364;-1.224;2022-11-20T07:06:05;99198.34;;;8.35;88.02
70544;BME280;58097;48.364;-1.224;2022-11-20T07:08:31;99199.06;;;8.37;88.16
70544;BME280;58097;48.364;-1.224;2022-11-20T07:11:04;99199.06;;;8.37;87.50
70544;BME280;58097;48.364;-1.224;2022-11-20T07:13:30;99192.84;;;8.35;87.44
70544;BME280;58097;48.364;-1.224;2022-11-20T07:16:04;99169.78;;;8.36;87.47
70544;BME280;58097;48.364;-1.224;2022-11-20T07:18:30;99176.34;;;8.35;87.57
70544;BME280;58097;48.364;-1.224;2022-11-20T07:20:55;99175.47;;;8.35;87.23
70544;BME280;58097;48.364;-1.224;2022-11-20T07:23:21;99169.63;;;8.38;87.45
70544;BME280;58097;48.364;-1.224;2022-11-20T07:25:46;99174.28;;;8.37;88.54
70544;BME280;58097;48.364;-1.224;2022-11-20T07:28:12;99168.38;;;8.32;89.18
70544;BME280;58097;48.364;-1.224;2022-11-20T07:30:37;99169.97;;;8.35;88.96
70544;BME280;58097;48.364;-1.224;2022-11-20T07:33:03;99174.28;;;8.37;88.17
70544;BME280;58097;48.364;-1.224;2022-11-20T07:35:28;99182.06;;;8.42;88.07
70544;BME280;58097;48.364;-1.224;2022-11-20T07:37:53;99183.09;;;8.41;88.17
70544;BME280;58097;48.364;-1.224;2022-11-20T07:40:19;99182.88;;;8.34;89.01
70544;BME280;58097;48.364;-1.224;2022-11-20T07:42:49;99191.25;;;8.33;88.78
70544;BME280;58097;48.364;-1.224;2022-11-20T07:45:15;99181.44;;;8.30;88.52
70544;BME280;58097;48.364;-1.224;2022-11-20T07:47:41;99179.72;;;8.29;88.65
70544;BME280;58097;48.364;-1.224;2022-11-20T07:50:06;99182.97;;;8.25;89.98
70544;BME280;58097;48.364;-1.224;2022-11-20T07:52:32;99192.09;;;8.25;89.56
70544;BME280;58097;48.364;-1.224;2022-11-20T07:54:57;99181.28;;;8.32;88.91
70544;BME280;58097;48.364;-1.224;2022-11-20T07:57:23;99187.34;;;8.35;89.09
70544;BME280;58097;48.364;-1.224;2022-11-20T07:59:48;99189.28;;;8.43;88.40
70544;BME280;58097;48.364;-1.224;2022-11-20T08:02:13;99197.91;;;8.48;88.60
70544;BME280;58097;48.364;-1.224;2022-11-20T08:04:39;99203.09;;;8.51;88.81
70544;BME280;58097;48.364;-1.224;2022-11-20T08:07:04;99204.13;;;8.50;88.74
70544;BME280;58097;48.364;-1.224;2022-11-20T08:09:29;99205.16;;;8.49;89.22
70544;BME280;58097;48.364;-1.224;2022-11-20T08:11:55;99211.84;;;8.47;89.66
70544;BME280;58097;48.364;-1.224;2022-11-20T08:14:39;99207.00;;;8.41;89.93
70544;BME280;58097;48.364;-1.224;2022-11-20T08:17:04;99197.03;;;8.40;89.78
70544;BME280;58097;48.364;-1.224;2022-11-20T08:19:30;99194.09;;;8.41;89.67
70544;BME280;58097;48.364;-1.224;2022-11-20T08:21:55;99211.31;;;8.43;89.50
70544;BME280;58097;48.364;-1.224;2022-11-20T08:24:21;99229.06;;;8.49;88.87
70544;BME280;58097;48.364;-1.224;2022-11-20T08:26:46;99234.94;;;8.54;88.70
70544;BME280;58097;48.364;-1.224;2022-11-20T08:29:11;99230.81;;;8.58;88.59
70544;BME280;58097;48.364;-1.224;2022-11-20T08:31:37;99224.47;;;8.57;89.27
70544;BME280;58097;48.364;-1.224;2022-11-20T08:34:02;99239.25;;;8.56;88.65
70544;BME280;58097;48.364;-1.224;2022-11-20T08:36:28;99239.94;;;8.58;88.75
70544;BME280;58097;48.364;-1.224;2022-11-20T08:38:55;99242.38;;;8.61;88.75
70544;BME280;58097;48.364;-1.224;2022-11-20T08:41:21;99237.38;;;8.65;88.52
70544;BME280;58097;48.364;-1.224;2022-11-20T08:43:56;99238.47;;;8.72;88.46
70544;BME280;58097;48.364;-1.224;2022-11-20T08:46:23;99236.78;;;8.79;89.31
70544;BME280;58097;48.364;-1.224;2022-11-20T08:48:49;99242.31;;;8.87;89.01
70544;BME280;58097;48.364;-1.224;2022-11-20T08:51:15;99234.94;;;8.96;89.46
70544;BME280;58097;48.364;-1.224;2022-11-20T08:53:41;99237.38;;;8.99;89.53
70544;BME280;58097;48.364;-1.224;2022-11-20T08:56:07;99233.44;;;9.10;89.22
70544;BME280;58097;48.364;-1.224;2022-11-20T08:58:32;99228.09;;;9.16;89.01
70544;BME280;58097;48.364;-1.224;2022-11-20T09:00:58;99243.25;;;9.20;89.46
70544;BME280;58097;48.364;-1.224;2022-11-20T09:03:23;99249.84;;;9.27;89.04
70544;BME280;58097;48.364;-1.224;2022-11-20T09:05:56;99253.81;;;9.33;88.97
70544;BME280;58097;48.364;-1.224;2022-11-20T09:08:22;99262.97;;;9.42;88.84
70544;BME280;58097;48.364;-1.224;2022-11-20T09:10:51;99271.41;;;9.40;89.72
70544;BME280;58097;48.364;-1.224;2022-11-20T09:13:17;99264.50;;;9.44;89.92
70544;BME280;58097;48.364;-1.224;2022-11-20T09:15:42;99288.66;;;9.50;89.44
70544;BME280;58097;48.364;-1.224;2022-11-20T09:18:07;99283.34;;;9.57;89.17
70544;BME280;58097;48.364;-1.224;2022-11-20T09:20:33;99299.38;;;9.61;89.25
70544;BME280;58097;48.364;-1.224;2022-11-20T09:22:58;99309.56;;;9.61;89.44
70544;BME280;58097;48.364;-1.224;2022-11-20T09:25:24;99308.53;;;9.62;89.26
70544;BME280;58097;48.364;-1.224;2022-11-20T09:27:58;99315.06;;;9.69;89.52
70544;BME280;58097;48.364;-1.224;2022-11-20T09:30:24;99316.81;;;9.70;89.66
70544;BME280;58097;48.364;-1.224;2022-11-20T09:32:50;99323.19;;;9.71;89.54
70544;BME280;58097;48.364;-1.224;2022-11-20T09:35:15;99329.75;;;9.78;89.23
70544;BME280;58097;48.364;-1.224;2022-11-20T09:37:41;99333.34;;;9.78;89.70
70544;BME280;58097;48.364;-1.224;2022-11-20T09:40:17;99335.78;;;9.81;90.08
70544;BME280;58097;48.364;-1.224;2022-11-20T09:47:56;99347.03;;;9.88;89.41
70544;BME280;58097;48.364;-1.224;2022-11-20T09:50:28;99347.38;;;9.93;89.16
70544;BME280;58097;48.364;-1.224;2022-11-20T09:53:16;99343.41;;;9.96;89.10
70544;BME280;58097;48.364;-1.224;2022-11-20T09:55:46;99360.13;;;10.02;88.69
70544;BME280;58097;48.364;-1.224;2022-11-20T09:58:19;99367.03;;;9.98;88.91
70544;BME280;58097;48.364;-1.224;2022-11-20T10:00:51;99370.47;;;10.00;88.81
70544;BME280;58097;48.364;-1.224;2022-11-20T10:03:24;99364.78;;;10.02;88.48
70544;BME280;58097;48.364;-1.224;2022-11-20T10:05:55;99364.63;;;10.03;88.82
70544;BME280;58097;48.364;-1.224;2022-11-20T10:08:24;99359.63;;;10.07;88.76
70544;BME280;58097;48.364;-1.224;2022-11-20T10:24:48;99370.16;;;10.76;88.24
70544;BME280;58097;48.364;-1.224;2022-11-20T10:30:15;99372.19;;;10.91;87.39
70544;BME280;58097;48.364;-1.224;2022-11-20T10:33:13;99373.19;;;10.98;87.08
70544;BME280;58097;48.364;-1.224;2022-11-20T10:36:05;99367.50;;;10.99;86.45
70544;BME280;58097;48.364;-1.224;2022-11-20T10:38:37;99366.13;;;11.03;86.11
70544;BME280;58097;48.364;-1.224;2022-11-20T10:41:05;99372.16;;;11.07;86.32
70544;BME280;58097;48.364;-1.224;2022-11-20T10:44:01;99374.34;;;11.20;86.63
70544;BME280;58097;48.364;-1.224;2022-11-20T10:46:34;99370.69;;;11.27;86.68
70544;BME280;58097;48.364;-1.224;2022-11-20T10:49:04;99381.59;;;11.29;86.00
70544;BME280;58097;48.364;-1.224;2022-11-20T10:51:44;99374.16;;;11.29;85.64
70544;BME280;58097;48.364;-1.224;2022-11-20T10:54:22;99369.81;;;11.27;85.34
70544;BME280;58097;48.364;-1.224;2022-11-20T10:56:53;99380.19;;;11.25;85.28
70544;BME280;58097;48.364;-1.224;2022-11-20T11:01:56;99390.44;;;11.16;85.18
70544;BME280;58097;48.364;-1.224;2022-11-20T11:06:58;99386.09;;;11.22;85.38
70544;BME280;58097;48.364;-1.224;2022-11-20T11:09:37;99383.13;;;11.31;85.34
70544;BME280;58097;48.364;-1.224;2022-11-20T11:12:11;99385.50;;;11.42;85.17
70544;BME280;58097;48.364;-1.224;2022-11-20T11:14:48;99387.84;;;11.54;84.44
70544;BME280;58097;48.364;-1.224;2022-11-20T11:17:27;99389.88;;;11.68;85.22
70544;BME280;58097;48.364;-1.224;2022-11-20T11:20:21;99387.22;;;11.83;84.48
70544;BME280;58097;48.364;-1.224;2022-11-20T11:27:56;99394.88;;;12.03;82.98
70544;BME280;58097;48.364;-1.224;2022-11-20T11:30:23;99393.03;;;11.96;82.89
70544;BME280;58097;48.364;-1.224;2022-11-20T11:32:49;99392.66;;;11.99;83.37
70544;BME280;58097;48.364;-1.224;2022-11-20T11:35:23;99385.91;;;12.01;83.63
70544;BME280;58097;48.364;-1.224;2022-11-20T11:37:49;99376.47;;;12.10;83.28
70544;BME280;58097;48.364;-1.224;2022-11-20T11:40:18;99379.75;;;12.14;82.37
70544;BME280;58097;48.364;-1.224;2022-11-20T11:42:49;99382.44;;;11.99;81.87
70544;BME280;58097;48.364;-1.224;2022-11-20T11:45:17;99379.56;;;11.93;82.31
70544;BME280;58097;48.364;-1.224;2022-11-20T11:50:23;99383.06;;;11.87;82.19
70544;BME280;58097;48.364;-1.224;2022-11-20T11:53:09;99373.22;;;11.76;82.29
70544;BME280;58097;48.364;-1.224;2022-11-20T11:55:40;99380.53;;;11.69;82.21
70544;BME280;58097;48.364;-1.224;2022-11-20T11:58:19;99377.47;;;11.56;82.27
70544;BME280;58097;48.364;-1.224;2022-11-20T12:00:54;99383.59;;;11.43;82.06
70544;BME280;58097;48.364;-1.224;2022-11-20T12:03:28;99371.22;;;11.31;82.83
70544;BME280;58097;48.364;-1.224;2022-11-20T12:06:01;99380.06;;;11.18;83.48
70544;BME280;58097;48.364;-1.224;2022-11-20T12:08:31;99378.31;;;11.17;83.51
70544;BME280;58097;48.364;-1.224;2022-11-20T12:11:14;99384.94;;;11.08;83.40
70544;BME280;58097;48.364;-1.224;2022-11-20T12:13:50;99390.47;;;11.08;83.37
70544;BME280;58097;48.364;-1.224;2022-11-20T12:16:19;99393.03;;;11.17;83.53
70544;BME280;58097;48.364;-1.224;2022-11-20T12:18:49;99392.97;;;11.34;83.50
70544;BME280;58097;48.364;-1.224;2022-11-20T12:21:26;99388.59;;;11.47;83.15
70544;BME280;58097;48.364;-1.224;2022-11-20T12:29:59;99402.81;;;12.06;83.21
70544;BME280;58097;48.364;-1.224;2022-11-20T12:43:42;99397.63;;;12.72;81.76
70544;BME280;58097;48.364;-1.224;2022-11-20T12:46:44;99398.38;;;12.66;80.50
70544;BME280;58097;48.364;-1.224;2022-11-20T12:49:54;99409.06;;;12.54;79.87
70544;BME280;58097;48.364;-1.224;2022-11-20T12:58:21;99421.84;;;12.09;81.09
70544;BME280;58097;48.364;-1.224;2022-11-20T13:00:59;99420.91;;;11.94;80.76
70544;BME280;58097;48.364;-1.224;2022-11-20T13:03:59;99414.00;;;11.90;81.36
70544;BME280;58097;48.364;-1.224;2022-11-20T13:06:18;99424.41;;;11.88;81.11
70544;BME280;58097;48.364;-1.224;2022-11-20T13:09:02;99426.94;;;11.98;81.05
70544;BME280;58097;48.364;-1.224;2022-11-20T13:17:15;99415.81;;;12.06;78.75
70544;BME280;58097;48.364;-1.224;2022-11-20T13:19:52;99415.13;;;12.04;78.59
70544;BME280;58097;48.364;-1.224;2022-11-20T13:22:41;99411.13;;;12.06;78.26
70544;BME280;58097;48.364;-1.224;2022-11-20T13:25:21;99414.56;;;12.08;78.18
70544;BME280;58097;48.364;-1.224;2022-11-20T13:27:48;99410.56;;;12.11;78.12
70544;BME280;58097;48.364;-1.224;2022-11-20T13:30:19;99412.13;;;12.14;78.20
70544;BME280;58097;48.364;-1.224;2022-11-20T13:32:50;99419.72;;;12.20;78.32
70544;BME280;58097;48.364;-1.224;2022-11-20T13:35:29;99409.25;;;12.30;78.16
70544;BME280;58097;48.364;-1.224;2022-11-20T13:40:32;99397.09;;;12.54;78.29
70544;BME280;58097;48.364;-1.224;2022-11-20T13:43:08;99400.47;;;12.64;78.77
70544;BME280;58097;48.364;-1.224;2022-11-20T13:45:36;99416.88;;;12.74;78.88
70544;BME280;58097;48.364;-1.224;2022-11-20T13:48:04;99416.41;;;12.85;77.34
70544;BME280;58097;48.364;-1.224;2022-11-20T13:57:00;99413.72;;;12.91;76.24
70544;BME280;58097;48.364;-1.224;2022-11-20T13:59:24;99422.25;;;12.90;75.54
70544;BME280;58097;48.364;-1.224;2022-11-20T14:01:53;99423.00;;;12.84;74.30
70544;BME280;58097;48.364;-1.224;2022-11-20T14:04:27;99419.56;;;12.82;75.25
70544;BME280;58097;48.364;-1.224;2022-11-20T14:06:54;99431.25;;;12.69;73.94
70544;BME280;58097;48.364;-1.224;2022-11-20T14:09:28;99427.09;;;12.50;73.28
70544;BME280;58097;48.364;-1.224;2022-11-20T14:11:54;99441.06;;;12.34;74.54
70544;BME280;58097;48.364;-1.224;2022-11-20T14:14:22;99463.53;;;12.16;74.16
70544;BME280;58097;48.364;-1.224;2022-11-20T14:16:49;99450.31;;;11.95;75.07
70544;BME280;58097;48.364;-1.224;2022-11-20T14:21:47;99450.25;;;11.64;76.04
70544;BME280;58097;48.364;-1.224;2022-11-20T14:24:13;99447.38;;;11.49;76.73